Time;durP1;ratioP1;P1;durP2;ratioP2;P2;SDS_P1;SDS_P2;PMS_P1;PMS_P2;Temp;Humidity;BMP_temperature;BMP_pressure;BME280_temperature;BME280_humidity;BME280_pressure;Samples;Min_cycle;Max_cycle;Signal;HPM_P1;HPM_P2
2022/07/17 00:00:05;;;;;;;4.75;1.40;;;13.00;99.90;;;;;;5092428;28;20051;-78
2022/07/17 00:02:30;;;;;;;4.55;1.40;;;13.00;99.90;;;;;;5055051;28;20040;-78
2022/07/17 00:04:56;;;;;;;5.22;1.55;;;12.90;99.90;;;;;;5067053;28;20051;-77
2022/07/17 00:07:22;;;;;;;4.65;1.52;;;12.90;99.90;;;;;;5055220;28;20119;-77
2022/07/17 00:09:47;;;;;;;5.53;1.40;;;12.90;99.90;;;;;;5057105;28;20052;-78
2022/07/17 00:12:13;;;;;;;4.05;1.40;;;12.80;99.90;;;;;;5068368;28;20113;-78
2022/07/17 00:14:39;;;;;;;5.55;1.40;;;12.80;99.90;;;;;;5074090;28;20124;-77
2022/07/17 00:17:05;;;;;;;5.25;1.33;;;12.80;99.90;;;;;;5058592;28;20051;-77
2022/07/17 00:19:32;;;;;;;4.47;1.40;;;12.80;99.90;;;;;;5074300;28;20101;-77
2022/07/17 00:21:58;;;;;;;4.97;1.40;;;12.80;99.90;;;;;;5058641;28;20055;-77
2022/07/17 00:24:24;;;;;;;4.65;1.40;;;12.70;99.90;;;;;;5074830;28;20491;-76
2022/07/17 00:26:51;;;;;;;5.85;1.42;;;12.70;99.90;;;;;;5058072;28;20127;-78
2022/07/17 00:29:17;;;;;;;6.97;1.60;;;12.70;99.90;;;;;;5073559;28;20052;-78
2022/07/17 00:31:43;;;;;;;4.82;1.50;;;12.70;99.90;;;;;;5074258;28;20071;-78
2022/07/17 00:34:09;;;;;;;4.97;1.60;;;12.60;99.90;;;;;;5058207;28;20411;-78
2022/07/17 00:36:35;;;;;;;5.43;1.40;;;12.60;99.90;;;;;;5074514;28;20056;-78
2022/07/17 00:39:00;;;;;;;5.25;1.50;;;12.60;99.90;;;;;;5066394;28;20063;-77
2022/07/17 00:41:26;;;;;;;5.65;1.83;;;12.50;99.90;;;;;;5052519;28;20052;-77
2022/07/17 00:43:52;;;;;;;4.75;1.45;;;12.50;99.90;;;;;;5057321;28;20098;-77
2022/07/17 00:46:18;;;;;;;4.22;1.70;;;12.50;99.90;;;;;;5074990;28;20478;-77
2022/07/17 00:48:43;;;;;;;4.68;1.60;;;12.40;99.90;;;;;;5074159;28;20048;-77
2022/07/17 00:51:09;;;;;;;4.65;1.60;;;12.40;99.90;;;;;;5077874;28;20055;-77
2022/07/17 00:53:36;;;;;;;6.47;1.90;;;12.40;99.90;;;;;;5078282;28;20076;-76
2022/07/17 00:56:04;;;;;;;5.90;1.67;;;12.40;99.90;;;;;;5096706;28;20072;-78
2022/07/17 00:58:33;;;;;;;5.18;1.70;;;12.40;99.90;;;;;;5061384;28;20044;-77
2022/07/17 01:00:59;;;;;;;4.68;1.58;;;12.30;99.90;;;;;;5077519;28;20052;-76
2022/07/17 01:03:26;;;;;;;5.72;1.83;;;12.30;99.90;;;;;;5061837;28;20044;-77
2022/07/17 01:05:52;;;;;;;5.85;1.80;;;12.20;99.90;;;;;;5061221;28;20040;-77
2022/07/17 01:08:18;;;;;;;5.05;1.80;;;12.10;99.90;;;;;;5078256;28;20505;-76
2022/07/17 01:10:44;;;;;;;5.55;1.80;;;12.10;99.90;;;;;;5056285;28;20071;-76
2022/07/17 01:13:10;;;;;;;5.35;1.73;;;12.10;99.90;;;;;;5058593;28;20053;-76
2022/07/17 01:15:38;;;;;;;4.85;2.00;;;12.10;99.90;;;;;;5060185;28;20075;-76
2022/07/17 01:18:07;;;;;;;5.43;2.10;;;12.00;99.90;;;;;;5077200;28;20104;-76
2022/07/17 01:20:33;;;;;;;5.72;1.85;;;12.00;99.90;;;;;;5078251;28;20052;-76
2022/07/17 01:22:59;;;;;;;4.47;1.90;;;12.00;99.90;;;;;;5078123;28;20059;-75
2022/07/17 01:25:24;;;;;;;4.80;1.83;;;11.90;99.90;;;;;;5078062;28;20044;-75
2022/07/17 01:27:51;;;;;;;5.45;1.75;;;11.90;99.90;;;;;;5074420;28;20056;-75
2022/07/17 01:30:17;;;;;;;5.00;1.90;;;11.90;99.90;;;;;;5075210;28;20045;-76
2022/07/17 01:32:43;;;;;;;5.82;1.80;;;11.90;99.90;;;;;;5074692;28;20190;-76
2022/07/17 01:35:12;;;;;;;5.50;1.88;;;11.90;99.90;;;;;;5073990;28;20040;-76
2022/07/17 01:37:39;;;;;;;5.03;1.73;;;11.90;99.90;;;;;;5077772;28;20093;-76
2022/07/17 01:40:06;;;;;;;5.13;1.88;;;11.90;99.90;;;;;;5075510;28;20139;-75
2022/07/17 01:42:31;;;;;;;6.75;2.17;;;11.80;99.90;;;;;;5074444;28;20044;-76
2022/07/17 01:44:58;;;;;;;5.60;1.60;;;11.80;99.90;;;;;;5070309;28;20058;-76
2022/07/17 01:47:24;;;;;;;5.57;1.70;;;11.80;99.90;;;;;;5072534;28;20048;-75
2022/07/17 01:49:52;;;;;;;5.85;1.80;;;11.80;99.90;;;;;;5068030;28;20048;-76
2022/07/17 01:52:19;;;;;;;5.60;2.08;;;11.70;99.90;;;;;;5077247;28;20040;-76
2022/07/17 01:54:45;;;;;;;5.45;2.20;;;11.70;99.90;;;;;;5067976;28;20110;-76
2022/07/17 01:57:11;;;;;;;5.95;2.00;;;11.60;99.90;;;;;;5058832;28;20495;-75
2022/07/17 01:59:38;;;;;;;5.40;1.75;;;11.50;99.90;;;;;;5056804;28;20055;-75
2022/07/17 02:02:04;;;;;;;5.75;2.15;;;11.50;99.90;;;;;;5070023;28;20094;-75
2022/07/17 02:04:31;;;;;;;6.22;2.08;;;11.50;99.90;;;;;;5094838;28;20075;-75
2022/07/17 02:06:57;;;;;;;5.95;2.00;;;11.40;99.90;;;;;;5095223;28;20080;-76
2022/07/17 02:09:23;;;;;;;6.03;2.00;;;11.40;99.90;;;;;;5076653;28;20063;-75
2022/07/17 02:11:49;;;;;;;6.20;1.95;;;11.30;99.90;;;;;;5060436;28;20054;-77
2022/07/17 02:14:15;;;;;;;4.22;1.80;;;11.30;99.90;;;;;;5059171;28;20499;-76
2022/07/17 02:16:40;;;;;;;5.15;1.80;;;11.20;99.90;;;;;;5060142;28;20077;-76
2022/07/17 02:19:06;;;;;;;6.18;1.98;;;11.20;99.90;;;;;;5094708;28;20093;-76
2022/07/17 02:21:32;;;;;;;5.32;1.80;;;11.10;99.90;;;;;;5074332;28;20494;-76
2022/07/17 02:23:58;;;;;;;5.50;2.03;;;11.10;99.90;;;;;;5066907;28;20040;-75
2022/07/17 02:26:23;;;;;;;4.55;1.60;;;11.10;99.90;;;;;;5076924;28;20568;-75
2022/07/17 02:28:49;;;;;;;5.90;1.90;;;11.00;99.90;;;;;;5075860;28;20056;-75
2022/07/17 02:31:15;;;;;;;8.23;2.60;;;11.00;99.90;;;;;;5070782;28;20131;-76
2022/07/17 02:33:40;;;;;;;7.00;2.20;;;11.00;99.90;;;;;;5061398;28;20076;-75
2022/07/17 02:36:07;;;;;;;5.40;2.00;;;11.00;99.90;;;;;;5045163;28;20054;-75
2022/07/17 02:38:33;;;;;;;4.30;1.67;;;10.90;99.90;;;;;;5058451;28;20048;-78
2022/07/17 02:40:59;;;;;;;5.65;1.90;;;10.80;99.90;;;;;;5057034;28;20548;-76
2022/07/17 02:43:25;;;;;;;4.75;1.90;;;10.80;99.90;;;;;;5056975;28;20048;-76
2022/07/17 02:45:50;;;;;;;5.63;1.80;;;10.80;99.90;;;;;;5054952;28;20135;-77
2022/07/17 02:48:16;;;;;;;4.80;1.60;;;10.80;99.90;;;;;;5066948;28;20131;-75
2022/07/17 02:50:42;;;;;;;4.45;1.50;;;10.80;99.90;;;;;;5064942;28;20045;-75
2022/07/17 02:53:07;;;;;;;5.82;1.92;;;10.90;99.90;;;;;;5064153;28;20052;-76
2022/07/17 02:55:33;;;;;;;5.22;1.65;;;11.00;99.90;;;;;;5092262;28;20044;-77
2022/07/17 02:57:59;;;;;;;5.40;2.05;;;11.00;99.90;;;;;;5076284;28;20387;-76
2022/07/17 03:00:26;;;;;;;5.38;1.90;;;11.00;99.90;;;;;;5093154;28;20044;-76
2022/07/17 03:02:52;;;;;;;6.57;1.83;;;11.00;99.90;;;;;;5072120;28;20064;-76
2022/07/17 03:05:18;;;;;;;4.93;1.58;;;11.00;99.90;;;;;;5057584;28;20048;-76
2022/07/17 03:07:45;;;;;;;5.13;1.63;;;11.00;99.90;;;;;;5073596;28;20048;-76
2022/07/17 03:10:11;;;;;;;5.43;1.60;;;11.00;99.90;;;;;;5056309;28;20037;-75
2022/07/17 03:12:37;;;;;;;4.70;1.90;;;11.00;99.90;;;;;;5044205;28;20044;-76
2022/07/17 03:15:04;;;;;;;4.55;1.70;;;10.90;99.90;;;;;;5075528;28;20132;-76
2022/07/17 03:17:30;;;;;;;5.20;1.80;;;10.80;99.90;;;;;;5059718;28;20067;-76
2022/07/17 03:19:56;;;;;;;5.85;1.67;;;10.80;99.90;;;;;;5077880;28;20514;-76
2022/07/17 03:22:21;;;;;;;4.38;1.67;;;10.70;99.90;;;;;;5060640;28;20080;-75
2022/07/17 03:24:47;;;;;;;5.13;1.95;;;10.70;99.90;;;;;;5043355;28;20399;-75
2022/07/17 03:27:13;;;;;;;5.50;2.40;;;10.70;99.90;;;;;;5056564;28;20040;-75
2022/07/17 03:29:38;;;;;;;6.93;2.33;;;10.60;99.90;;;;;;5039667;28;20040;-74
2022/07/17 03:32:05;;;;;;;7.40;2.15;;;10.60;99.90;;;;;;5076926;28;20045;-75
2022/07/17 03:34:30;;;;;;;7.03;2.50;;;10.50;99.90;;;;;;5058752;28;20068;-75
2022/07/17 03:36:56;;;;;;;6.40;2.10;;;10.60;99.90;;;;;;5055461;28;20102;-76
2022/07/17 03:39:22;;;;;;;5.35;2.20;;;10.50;99.90;;;;;;5074633;28;20048;-75
2022/07/17 03:41:48;;;;;;;5.03;1.75;;;10.40;99.90;;;;;;5066634;28;20131;-75
2022/07/17 03:44:14;;;;;;;4.75;2.00;;;10.50;99.90;;;;;;5085034;28;20127;-75
2022/07/17 03:46:39;;;;;;;6.78;2.10;;;10.40;99.90;;;;;;5093266;28;20044;-75
2022/07/17 03:49:06;;;;;;;5.63;2.03;;;10.40;99.90;;;;;;5074531;28;20048;-75
2022/07/17 03:51:31;;;;;;;6.68;2.22;;;10.40;99.90;;;;;;5075397;28;20055;-75
2022/07/17 03:53:57;;;;;;;4.85;2.47;;;10.40;99.90;;;;;;5081880;28;20048;-76
2022/07/17 03:56:23;;;;;;;5.22;2.00;;;10.40;99.90;;;;;;5092912;28;20051;-74
2022/07/17 03:58:49;;;;;;;5.28;2.25;;;10.40;99.90;;;;;;5061237;28;20052;-74
2022/07/17 04:01:15;;;;;;;5.97;2.20;;;10.30;99.90;;;;;;5068978;28;20045;-75
2022/07/17 04:03:40;;;;;;;5.82;2.10;;;10.20;99.90;;;;;;5062940;28;20075;-76
2022/07/17 04:06:06;;;;;;;6.43;2.00;;;10.20;99.90;;;;;;5090290;28;20048;-75
2022/07/17 04:08:32;;;;;;;6.68;1.80;;;10.20;99.90;;;;;;5065473;28;20051;-77
2022/07/17 04:10:58;;;;;;;5.95;2.58;;;10.20;99.90;;;;;;5086522;28;20130;-75
2022/07/17 04:13:23;;;;;;;4.82;2.10;;;10.20;99.90;;;;;;5058411;28;20046;-75
2022/07/17 04:15:49;;;;;;;5.38;2.30;;;10.10;99.90;;;;;;5074413;28;20048;-74
2022/07/17 04:18:20;;;;;;;5.15;1.92;;;10.10;99.90;;;;;;5041782;28;20044;-74
2022/07/17 04:20:46;;;;;;;5.65;2.08;;;10.10;99.90;;;;;;5074706;28;20040;-75
2022/07/17 04:23:13;;;;;;;5.65;2.40;;;10.00;99.90;;;;;;5060618;28;20052;-75
2022/07/17 04:25:39;;;;;;;7.63;2.70;;;10.00;99.90;;;;;;5084853;28;20048;-75
2022/07/17 04:28:05;;;;;;;9.05;3.22;;;10.00;99.90;;;;;;5061090;28;20083;-75
2022/07/17 04:30:30;;;;;;;6.53;2.53;;;10.10;99.90;;;;;;5058064;28;20484;-75
2022/07/17 04:32:57;;;;;;;7.35;2.70;;;10.10;99.90;;;;;;5077496;28;20482;-76
2022/07/17 04:35:22;;;;;;;6.55;2.63;;;10.20;99.90;;;;;;5079000;28;20035;-74
2022/07/17 04:37:48;;;;;;;8.55;3.15;;;10.20;99.90;;;;;;5062438;28;20544;-75
2022/07/17 04:40:14;;;;;;;6.22;3.00;;;10.40;99.90;;;;;;5091371;28;20076;-75
2022/07/17 04:42:39;;;;;;;6.00;2.85;;;10.30;99.90;;;;;;5050029;28;20110;-75
2022/07/17 04:45:06;;;;;;;7.07;2.80;;;10.40;99.90;;;;;;5074637;28;20090;-75
2022/07/17 04:47:33;;;;;;;6.50;3.33;;;10.40;99.90;;;;;;5096828;28;20047;-75
2022/07/17 04:49:59;;;;;;;8.35;3.03;;;10.50;99.90;;;;;;5059056;28;20547;-75
2022/07/17 04:52:24;;;;;;;10.13;3.72;;;10.60;99.90;;;;;;5054809;28;20127;-74
2022/07/17 04:54:50;;;;;;;7.43;3.33;;;10.60;99.90;;;;;;5055022;28;20476;-74
2022/07/17 04:57:16;;;;;;;7.13;3.08;;;10.80;99.90;;;;;;5073322;28;20092;-74
2022/07/17 04:59:42;;;;;;;7.88;3.30;;;10.80;99.90;;;;;;5077370;28;20040;-75
2022/07/17 05:02:07;;;;;;;7.03;3.00;;;11.00;99.90;;;;;;5096534;28;20127;-79
2022/07/17 05:04:33;;;;;;;8.02;3.33;;;11.10;99.90;;;;;;5061693;28;20141;-75
2022/07/17 05:06:59;;;;;;;8.55;3.50;;;11.20;99.90;;;;;;5061467;28;20399;-74
2022/07/17 05:09:25;;;;;;;9.88;3.50;;;11.30;99.90;;;;;;5077307;28;20045;-75
2022/07/17 05:11:51;;;;;;;8.63;3.63;;;11.40;99.90;;;;;;5077128;28;20051;-76
2022/07/17 05:14:16;;;;;;;9.15;3.63;;;11.50;99.90;;;;;;5076855;28;20056;-75
2022/07/17 05:16:42;;;;;;;8.13;3.25;;;11.60;99.90;;;;;;5087457;28;20182;-75
2022/07/17 05:19:08;;;;;;;9.93;3.28;;;11.70;99.90;;;;;;5075359;28;20036;-74
2022/07/17 05:21:33;;;;;;;9.30;3.30;;;11.90;99.90;;;;;;5043187;28;20044;-74
2022/07/17 05:23:59;;;;;;;7.40;3.47;;;12.10;99.90;;;;;;5075360;28;20052;-75
2022/07/17 05:26:26;;;;;;;7.90;3.10;;;12.20;99.90;;;;;;5090415;28;20491;-75
2022/07/17 05:28:52;;;;;;;9.70;3.22;;;12.40;99.90;;;;;;5094788;28;20494;-74
2022/07/17 05:31:17;;;;;;;7.68;2.75;;;12.50;99.90;;;;;;5092500;28;20067;-75
2022/07/17 05:33:43;;;;;;;8.32;3.25;;;12.60;99.90;;;;;;5074039;28;20106;-74
2022/07/17 05:36:09;;;;;;;7.53;2.95;;;12.70;99.90;;;;;;5086371;28;20076;-75
2022/07/17 05:38:34;;;;;;;8.68;2.90;;;12.80;99.90;;;;;;5076788;28;20044;-75
2022/07/17 05:41:00;;;;;;;9.73;3.40;;;12.80;99.90;;;;;;5068636;28;20040;-75
2022/07/17 05:43:26;;;;;;;8.27;2.90;;;12.80;99.90;;;;;;5067354;28;20032;-75
2022/07/17 05:45:58;;;;;;;9.60;2.72;;;12.90;99.90;;;;;;5061583;28;20118;-75
2022/07/17 05:48:26;;;;;;;7.68;2.50;;;12.90;99.90;;;;;;5057004;28;20094;-75
2022/07/17 05:50:52;;;;;;;8.43;2.50;;;13.00;99.90;;;;;;5077250;28;20479;-75
2022/07/17 05:53:18;;;;;;;8.05;2.70;;;13.10;99.90;;;;;;5073799;28;20148;-76
2022/07/17 05:55:44;;;;;;;9.23;2.90;;;13.10;99.90;;;;;;5041220;28;20052;-75
2022/07/17 05:58:10;;;;;;;6.60;2.92;;;13.30;99.90;;;;;;5080868;28;20051;-75
2022/07/17 06:00:36;;;;;;;7.03;2.60;;;13.30;99.90;;;;;;5055541;28;20135;-78
2022/07/17 06:03:02;;;;;;;6.68;2.40;;;13.40;99.90;;;;;;5060166;28;20048;-75
2022/07/17 06:05:27;;;;;;;7.38;2.70;;;13.40;99.90;;;;;;5095089;28;20571;-75
2022/07/17 06:07:55;;;;;;;7.28;2.30;;;13.50;99.90;;;;;;5094828;28;20043;-75
2022/07/17 06:10:21;;;;;;;6.53;2.38;;;13.60;99.90;;;;;;5058231;28;20135;-76
2022/07/17 06:12:47;;;;;;;6.88;2.45;;;13.70;99.90;;;;;;5071777;28;20052;-78
2022/07/17 06:15:13;;;;;;;7.05;2.25;;;13.70;99.90;;;;;;5072592;28;20048;-75
2022/07/17 06:17:39;;;;;;;7.10;2.30;;;13.80;99.90;;;;;;5042695;28;20093;-76
2022/07/17 06:20:05;;;;;;;7.15;2.20;;;13.80;99.90;;;;;;5061684;28;20052;-82
2022/07/17 06:22:31;;;;;;;5.40;2.00;;;13.90;99.90;;;;;;5058103;28;20102;-80
2022/07/17 06:24:57;;;;;;;6.00;2.20;;;14.00;99.90;;;;;;5054318;28;20493;-76
2022/07/17 06:27:23;;;;;;;9.13;2.50;;;14.00;99.90;;;;;;5056329;28;20056;-76
2022/07/17 06:29:50;;;;;;;7.20;2.28;;;14.30;99.90;;;;;;5079793;28;20147;-77
2022/07/17 06:32:16;;;;;;;8.90;2.47;;;14.70;99.90;;;;;;5088958;28;20044;-83
2022/07/17 06:34:42;;;;;;;8.88;2.30;;;15.60;99.90;;;;;;5067262;28;20044;-76
2022/07/17 06:37:08;;;;;;;5.82;1.90;;;16.40;99.90;;;;;;5086193;28;20044;-79
2022/07/17 06:39:34;;;;;;;6.10;1.67;;;17.20;99.90;;;;;;5091799;28;20148;-77
2022/07/17 06:42:00;;;;;;;5.65;1.60;;;18.20;99.90;;;;;;5055318;28;20044;-78
2022/07/17 06:44:26;;;;;;;7.32;1.80;;;19.10;99.90;;;;;;5072873;28;20424;-78
2022/07/17 06:46:52;;;;;;;6.30;1.63;;;19.80;99.90;;;;;;5072847;28;20055;-76
2022/07/17 06:49:17;;;;;;;5.47;1.42;;;20.50;99.20;;;;;;5089284;28;20051;-78
2022/07/17 06:51:45;;;;;;;7.07;1.60;;;21.30;97.00;;;;;;5073448;28;20083;-76
2022/07/17 06:54:12;;;;;;;6.93;1.67;;;21.30;94.90;;;;;;5072960;28;20040;-77
2022/07/17 06:56:38;;;;;;;6.82;1.40;;;21.90;92.10;;;;;;5056912;28;21143;-79
2022/07/17 06:59:06;;;;;;;6.53;1.60;;;22.20;89.60;;;;;;5055637;28;20056;-79
2022/07/17 07:01:36;;;;;;;7.13;1.63;;;22.30;85.00;;;;;;5073018;28;20526;-77
2022/07/17 07:04:03;;;;;;;6.60;1.60;;;22.00;82.00;;;;;;5055470;28;20071;-77
2022/07/17 07:06:29;;;;;;;6.78;1.63;;;22.60;82.10;;;;;;5072312;28;20076;-76
2022/07/17 07:08:55;;;;;;;6.57;1.60;;;22.60;82.20;;;;;;5055215;28;20051;-77
2022/07/17 07:11:21;;;;;;;7.18;1.73;;;22.40;80.70;;;;;;5071852;28;20085;-77
2022/07/17 07:13:47;;;;;;;5.05;1.40;;;22.80;82.30;;;;;;5072239;28;20078;-78
2022/07/17 07:16:13;;;;;;;5.63;1.33;;;23.30;76.40;;;;;;5073223;28;20086;-77
2022/07/17 07:18:39;;;;;;;5.05;1.23;;;23.40;76.60;;;;;;5073043;28;20040;-76
2022/07/17 07:21:04;;;;;;;5.68;1.50;;;23.00;69.70;;;;;;5090239;28;20051;-80
2022/07/17 07:23:30;;;;;;;6.32;1.45;;;23.20;73.80;;;;;;5090911;28;20609;-75
2022/07/17 07:25:56;;;;;;;6.63;1.63;;;23.80;73.70;;;;;;5072605;28;20387;-75
2022/07/17 07:28:21;;;;;;;7.05;1.33;;;23.60;70.50;;;;;;5089427;28;20066;-75
2022/07/17 07:30:47;;;;;;;5.07;1.55;;;23.40;69.60;;;;;;5089508;28;20181;-77
2022/07/17 07:33:13;;;;;;;7.75;1.60;;;23.10;69.40;;;;;;5072495;28;20044;-78
2022/07/17 07:35:39;;;;;;;7.15;1.40;;;22.60;70.40;;;;;;5089601;28;20540;-75
2022/07/17 07:38:04;;;;;;;5.47;1.30;;;22.20;72.10;;;;;;5090340;28;20051;-74
2022/07/17 07:40:31;;;;;;;8.73;1.60;;;21.90;74.60;;;;;;5071844;28;20383;-75
2022/07/17 07:42:57;;;;;;;4.95;1.33;;;21.60;75.40;;;;;;5054522;28;20071;-76
2022/07/17 07:45:23;;;;;;;5.47;1.50;;;21.50;77.80;;;;;;5054352;28;20062;-75
2022/07/17 07:47:50;;;;;;;6.40;1.38;;;21.50;77.70;;;;;;5072301;28;20055;-75
2022/07/17 07:50:17;;;;;;;8.70;1.65;;;21.10;76.20;;;;;;5089786;28;20137;-75
2022/07/17 07:52:43;;;;;;;7.28;1.50;;;20.90;79.70;;;;;;5072444;28;20055;-75
2022/07/17 07:55:11;;;;;;;6.25;1.40;;;20.80;82.00;;;;;;5090103;28;20052;-76
2022/07/17 07:57:37;;;;;;;8.85;1.65;;;20.70;84.10;;;;;;5072736;28;20471;-74
2022/07/17 08:00:08;;;;;;;7.57;1.55;;;20.80;86.20;;;;;;5085683;28;20526;-77
2022/07/17 08:02:34;;;;;;;7.20;1.70;;;20.80;83.10;;;;;;5067980;28;20059;-75
2022/07/17 08:05:00;;;;;;;7.38;1.60;;;20.80;85.50;;;;;;5082720;28;20044;-76
2022/07/17 08:07:26;;;;;;;6.50;1.50;;;20.80;84.90;;;;;;5083454;28;20046;-75
2022/07/17 08:09:52;;;;;;;6.45;1.42;;;20.80;85.40;;;;;;5055901;28;20039;-82
2022/07/17 08:12:18;;;;;;;6.80;1.50;;;21.00;85.10;;;;;;5073536;28;20454;-77
2022/07/17 08:14:44;;;;;;;7.80;1.50;;;21.00;84.60;;;;;;5072320;28;20050;-78
2022/07/17 08:17:10;;;;;;;6.03;1.35;;;21.20;85.80;;;;;;5091738;28;20403;-78
2022/07/17 08:19:35;;;;;;;6.72;1.50;;;21.40;84.50;;;;;;5091036;28;20039;-78
2022/07/17 08:22:01;;;;;;;7.22;1.60;;;21.50;83.10;;;;;;5072874;28;20051;-78
2022/07/17 08:24:27;;;;;;;6.57;1.45;;;21.60;82.00;;;;;;5072687;28;20058;-79
2022/07/17 08:26:53;;;;;;;4.97;1.30;;;21.60;81.40;;;;;;5073297;28;20055;-77
2022/07/17 08:29:18;;;;;;;7.68;1.58;;;21.70;80.20;;;;;;5089650;28;20052;-77
2022/07/17 08:31:44;;;;;;;7.28;1.40;;;21.50;80.00;;;;;;5054406;28;20058;-77
2022/07/17 08:34:10;;;;;;;5.47;1.27;;;21.70;82.50;;;;;;5086839;28;20048;-77
2022/07/17 08:36:35;;;;;;;7.72;1.50;;;21.90;81.10;;;;;;5089383;28;20040;-77
2022/07/17 08:39:02;;;;;;;8.25;1.55;;;22.00;80.10;;;;;;5071308;28;20051;-75
2022/07/17 08:41:29;;;;;;;6.75;1.60;;;22.10;79.20;;;;;;5070848;28;20048;-78
2022/07/17 08:43:56;;;;;;;8.18;1.50;;;22.10;76.60;;;;;;5070821;28;20422;-77
2022/07/17 08:46:27;;;;;;;7.70;1.60;;;22.40;74.90;;;;;;5074226;28;20058;-76
2022/07/17 08:48:58;;;;;;;6.07;1.40;;;22.50;73.20;;;;;;5070256;28;20052;-81
2022/07/17 08:51:26;;;;;;;5.60;1.40;;;22.70;71.50;;;;;;5072732;28;20044;-78
2022/07/17 08:53:53;;;;;;;5.63;1.30;;;22.90;72.90;;;;;;5073277;28;20298;-77
2022/07/17 08:56:19;;;;;;;5.93;1.40;;;22.90;71.10;;;;;;5069759;28;20046;-75
2022/07/17 08:58:45;;;;;;;4.97;1.30;;;22.90;69.70;;;;;;5072779;28;20040;-78
2022/07/17 09:01:11;;;;;;;5.68;1.33;;;23.00;70.10;;;;;;5090598;28;20459;-77
2022/07/17 09:03:38;;;;;;;5.45;1.50;;;23.30;70.70;;;;;;5056087;28;20097;-77
2022/07/17 09:06:04;;;;;;;6.80;1.60;;;23.30;69.30;;;;;;5073250;28;20066;-76
2022/07/17 09:08:32;;;;;;;6.25;1.67;;;23.00;67.70;;;;;;5091367;28;20537;-77
2022/07/17 09:10:58;;;;;;;6.97;1.40;;;23.20;70.00;;;;;;5088649;28;20101;-75
2022/07/17 09:13:26;;;;;;;7.63;1.55;;;23.30;70.00;;;;;;5095294;28;20538;-74
2022/07/17 09:16:10;;;;;;;6.70;1.58;;;23.40;69.60;;;;;;5071700;28;20058;-77
2022/07/17 09:18:47;;;;;;;5.75;1.40;;;23.50;68.10;;;;;;5071389;28;20040;-78
2022/07/17 09:21:27;;;;;;;6.90;1.50;;;23.70;68.90;;;;;;5059256;28;20130;-77
2022/07/17 09:24:05;;;;;;;7.65;1.60;;;23.60;62.30;;;;;;5070781;28;20052;-78
2022/07/17 09:26:33;;;;;;;5.57;1.38;;;23.90;67.90;;;;;;5071078;28;20135;-75
2022/07/17 09:29:01;;;;;;;6.65;1.40;;;24.20;65.20;;;;;;5075315;28;20056;-77
2022/07/17 09:31:32;;;;;;;6.55;1.30;;;23.90;63.60;;;;;;5072723;28;20080;-81
2022/07/17 09:33:58;;;;;;;6.65;1.48;;;23.90;59.70;;;;;;5094516;28;20048;-75
2022/07/17 09:36:25;;;;;;;6.35;1.45;;;24.00;60.90;;;;;;5076503;28;20044;-77
2022/07/17 09:38:56;;;;;;;5.18;1.30;;;23.60;58.30;;;;;;5059576;28;20105;-76
2022/07/17 09:41:23;;;;;;;;;;;23.40;60.80;;;;;;5075861;28;20383;-77
2022/07/17 09:43:54;;;;;;;6.53;1.40;;;23.30;62.00;;;;;;5075997;28;19970;-76
2022/07/17 09:46:23;;;;;;;6.28;1.30;;;23.40;61.30;;;;;;5094405;28;20039;-76
2022/07/17 09:48:54;;;;;;;6.88;1.30;;;23.40;62.90;;;;;;5075858;28;20402;-75
2022/07/17 09:51:38;;;;;;;7.22;1.40;;;23.50;59.50;;;;;;5075846;28;20063;-77
2022/07/17 09:54:05;;;;;;;4.47;1.20;;;23.70;62.00;;;;;;5075697;28;20052;-77
2022/07/17 09:56:33;;;;;;;5.63;1.38;;;23.90;60.00;;;;;;5059610;28;20066;-76
2022/07/17 09:59:05;;;;;;;5.60;1.20;;;24.00;61.40;;;;;;5092927;28;20475;-80
2022/07/17 10:01:32;;;;;;;5.68;1.38;;;24.10;58.50;;;;;;5089543;28;20052;-77
2022/07/17 10:03:58;;;;;;;5.28;1.30;;;24.20;59.10;;;;;;5058961;28;20047;-75
2022/07/17 10:06:25;;;;;;;5.93;1.40;;;24.20;57.60;;;;;;5075840;28;20051;-77
2022/07/17 10:08:53;;;;;;;5.68;1.20;;;24.40;59.90;;;;;;5076029;28;20481;-75
2022/07/17 10:11:21;;;;;;;6.57;1.50;;;24.50;59.10;;;;;;5071377;28;20037;-75
2022/07/17 10:13:48;;;;;;;5.30;1.23;;;24.70;59.10;;;;;;5071255;28;20044;-77
2022/07/17 10:16:26;;;;;;;5.45;1.48;;;24.90;56.00;;;;;;5075050;28;20052;-78
2022/07/17 10:18:54;;;;;;;6.03;1.30;;;25.00;56.30;;;;;;5076279;28;20068;-78
2022/07/17 10:21:22;;;;;;;6.03;1.30;;;25.10;56.40;;;;;;5074178;28;20079;-76
2022/07/17 10:23:53;;;;;;;7.00;1.50;;;25.00;53.70;;;;;;5071941;28;20051;-74
2022/07/17 10:26:32;;;;;;;;;;;25.10;54.80;;;;;;5075813;28;20071;-78
2022/07/17 10:28:58;;;;;;;4.78;1.20;;;25.20;56.50;;;;;;5070691;28;20371;-73
2022/07/17 10:31:26;;;;;;;5.88;1.45;;;25.30;56.60;;;;;;5058239;28;20051;-76
2022/07/17 10:33:56;;;;;;;6.15;1.40;;;25.00;56.80;;;;;;5072751;28;20048;-75
2022/07/17 10:36:43;;;;;;;5.93;1.30;;;25.20;58.30;;;;;;5074709;28;20133;-74
2022/07/17 10:39:17;;;;;;;5.97;1.52;;;25.60;58.40;;;;;;5072781;28;20055;-74
2022/07/17 10:41:55;;;;;;;5.53;1.33;;;25.40;53.10;;;;;;5074756;28;20044;-74
2022/07/17 10:44:26;;;;;;;3.55;1.10;;;25.20;56.00;;;;;;5074809;28;20132;-73
2022/07/17 10:46:52;;;;;;;;;;;25.40;56.00;;;;;;5058612;28;20040;-76
2022/07/17 10:49:18;;;;;;;6.40;1.50;;;25.30;56.00;;;;;;5075128;28;20053;-75
2022/07/17 10:51:45;;;;;;;5.00;1.30;;;25.10;56.20;;;;;;5073799;28;20127;-74
2022/07/17 10:54:11;;;;;;;6.45;1.50;;;25.30;55.60;;;;;;5075028;28;20126;-72
2022/07/17 10:56:40;;;;;;;7.03;1.55;;;25.30;53.30;;;;;;5074445;28;20119;-74
2022/07/17 10:59:06;;;;;;;6.07;1.50;;;25.00;54.90;;;;;;5056252;28;20135;-77
2022/07/17 11:01:32;;;;;;;6.38;1.48;;;24.90;54.90;;;;;;5058126;28;20075;-73
2022/07/17 11:04:01;;;;;;;5.28;1.20;;;25.10;56.50;;;;;;5074682;28;20082;-74
2022/07/17 11:06:32;;;;;;;4.97;1.40;;;25.20;55.70;;;;;;5071603;28;20064;-73
2022/07/17 11:09:08;;;;;;;6.47;1.23;;;25.30;55.90;;;;;;5074533;28;20040;-74
2022/07/17 11:11:37;;;;;;;4.93;1.30;;;25.40;53.60;;;;;;5041090;28;20112;-76
2022/07/17 11:14:18;;;;;;;5.32;1.30;;;25.30;55.20;;;;;;5069719;28;20058;-73
2022/07/17 11:16:52;;;;;;;4.38;1.10;;;25.20;55.00;;;;;;5055735;28;20044;-74
2022/07/17 11:19:26;;;;;;;5.35;1.30;;;25.40;54.40;;;;;;5092401;28;20083;-75
2022/07/17 11:21:53;;;;;;;4.65;1.35;;;25.50;53.70;;;;;;5088947;28;20056;-75
2022/07/17 11:24:18;;;;;;;6.50;1.40;;;25.60;55.00;;;;;;5072150;28;20073;-74
2022/07/17 11:26:45;;;;;;;5.88;1.50;;;25.50;53.80;;;;;;5092209;28;20499;-74
2022/07/17 11:29:11;;;;;;;5.78;1.52;;;25.60;54.60;;;;;;5052816;28;20502;-76
2022/07/17 11:31:37;;;;;;;4.75;1.35;;;25.40;55.20;;;;;;5069977;28;20088;-74
2022/07/17 11:34:08;;;;;;;5.32;1.50;;;25.70;55.20;;;;;;5070655;28;20057;-73
2022/07/17 11:36:44;;;;;;;5.82;1.30;;;25.80;53.20;;;;;;5067445;28;20075;-72
2022/07/17 11:39:11;;;;;;;5.10;1.13;;;25.80;52.50;;;;;;5068916;28;20048;-76
2022/07/17 11:41:43;;;;;;;5.45;1.20;;;25.60;53.10;;;;;;5053046;28;20079;-76
2022/07/17 11:44:12;;;;;;;5.47;1.60;;;25.70;54.40;;;;;;5066770;28;20582;-76
2022/07/17 11:46:39;;;;;;;5.38;1.33;;;25.70;53.60;;;;;;5067290;28;20475;-77
2022/07/17 11:49:06;;;;;;;6.07;1.42;;;25.70;55.00;;;;;;5068875;28;20057;-76
2022/07/17 11:51:44;;;;;;;4.78;1.40;;;25.60;53.40;;;;;;5070452;28;20044;-74
2022/07/17 11:54:16;;;;;;;6.10;1.40;;;25.60;55.70;;;;;;5071561;28;20729;-75
2022/07/17 11:56:42;;;;;;;;;;;25.80;54.20;;;;;;5068867;28;20041;-76
2022/07/17 11:59:09;;;;;;;4.97;1.40;;;25.20;53.20;;;;;;5068380;28;19925;-75
2022/07/17 12:01:40;;;;;;;5.10;1.40;;;25.30;54.60;;;;;;5058151;28;20483;-75
2022/07/17 12:04:09;;;;;;;6.18;1.50;;;25.40;55.80;;;;;;5061504;28;20052;-77
2022/07/17 12:06:35;;;;;;;5.28;1.50;;;25.10;54.10;;;;;;5051216;28;20037;-74
2022/07/17 12:09:01;;;;;;;5.47;1.30;;;25.10;53.70;;;;;;5054051;28;20052;-76
2022/07/17 12:11:27;;;;;;;5.00;1.45;;;25.30;55.10;;;;;;5062061;28;20044;-75
2022/07/17 12:13:53;;;;;;;4.60;1.40;;;25.50;56.50;;;;;;5053400;28;20084;-76
2022/07/17 12:16:19;;;;;;;7.50;1.60;;;25.50;53.40;;;;;;5065277;28;20036;-77
2022/07/17 12:19:15;;;;;;;10.18;1.80;;;25.40;54.80;;;;;;5068907;28;20475;-76
2022/07/17 12:22:03;;;;;;;6.50;1.63;;;25.60;55.10;;;;;;5069837;28;20101;-77
2022/07/17 12:24:37;;;;;;;4.22;1.38;;;25.50;53.80;;;;;;5068592;28;20048;-74
2022/07/17 12:27:05;;;;;;;6.00;1.70;;;25.20;52.80;;;;;;5054258;28;20110;-77
2022/07/17 12:29:31;;;;;;;5.45;1.45;;;25.10;55.30;;;;;;5069118;28;20048;-76
2022/07/17 12:32:17;;;;;;;5.80;1.48;;;25.20;55.00;;;;;;5069928;28;20480;-76
2022/07/17 12:34:45;;;;;;;5.72;1.60;;;25.30;54.10;;;;;;5067131;28;20044;-73
2022/07/17 12:37:16;;;;;;;4.97;1.40;;;24.90;54.60;;;;;;5069447;28;20040;-74
2022/07/17 12:39:43;;;;;;;6.70;1.40;;;24.40;54.40;;;;;;5066239;28;20045;-75
2022/07/17 12:42:09;;;;;;;5.10;1.50;;;24.60;56.20;;;;;;5069038;28;20171;-76
2022/07/17 12:44:35;;;;;;;4.80;1.30;;;24.90;55.10;;;;;;5069663;28;20404;-76
2022/07/17 12:47:01;;;;;;;6.40;1.70;;;25.00;55.50;;;;;;5072607;28;20041;-73